createdAt,value
2023-05-26T00:04:44.435Z,10.60
2023-05-26T00:09:48.059Z,10.51
2023-05-26T00:14:52.804Z,10.44
2023-05-26T00:19:56.435Z,10.34
2023-05-26T00:24:59.498Z,10.32
2023-05-26T00:30:03.916Z,10.22
2023-05-26T00:35:07.949Z,10.20
2023-05-26T00:40:12.333Z,10.12
2023-05-26T00:45:17.436Z,10.13
2023-05-26T00:50:20.808Z,10.11
2023-05-26T00:55:25.314Z,10.11
2023-05-26T01:00:30.230Z,10.14
2023-05-26T01:05:33.432Z,10.17
2023-05-26T01:10:37.160Z,10.18
2023-05-26T01:15:48.320Z,10.20
2023-05-26T01:20:57.624Z,10.13
2023-05-26T01:26:23.487Z,10.08
2023-05-26T01:31:28.118Z,10.01
2023-05-26T01:36:31.201Z,9.97
2023-05-26T01:41:43.943Z,10.00
2023-05-26T01:46:51.086Z,9.94
2023-05-26T01:51:59.179Z,9.90
2023-05-26T01:57:03.497Z,9.82
2023-05-26T02:02:07.916Z,9.86
2023-05-26T02:07:11.656Z,9.81
2023-05-26T02:12:15.603Z,9.89
2023-05-26T02:17:20.157Z,9.82
2023-05-26T02:22:23.525Z,9.74
2023-05-26T02:27:27.097Z,9.70
2023-05-26T02:32:32.110Z,9.68
2023-05-26T02:37:35.945Z,9.66
2023-05-26T02:42:39.023Z,9.66
2023-05-26T02:47:43.829Z,9.67
2023-05-26T02:52:47.546Z,9.66
2023-05-26T02:57:50.921Z,9.63
2023-05-26T03:02:56.014Z,9.62
2023-05-26T03:07:59.225Z,9.53
2023-05-26T03:13:02.655Z,9.48
2023-05-26T03:18:07.793Z,9.47
2023-05-26T03:23:10.934Z,9.46
2023-05-26T03:28:14.025Z,9.48
2023-05-26T03:33:18.774Z,9.45
2023-05-26T03:38:22.254Z,9.36
2023-05-26T03:43:25.344Z,9.36
2023-05-26T03:48:30.697Z,9.38
2023-05-26T03:53:33.847Z,9.33
2023-05-26T03:58:36.898Z,9.39
2023-05-26T04:03:42.069Z,9.37
2023-05-26T04:08:48.820Z,9.40
2023-05-26T04:13:51.894Z,9.41
2023-05-26T04:18:56.257Z,9.44
2023-05-26T04:23:59.351Z,9.48
2023-05-26T04:29:02.944Z,9.53
2023-05-26T04:34:07.538Z,9.56
2023-05-26T04:39:11.013Z,9.59
2023-05-26T04:44:14.795Z,9.71
2023-05-26T04:49:19.162Z,9.74
2023-05-26T04:54:22.695Z,9.83
2023-05-26T04:59:26.307Z,9.89
2023-05-26T05:04:30.741Z,9.97
2023-05-26T05:09:33.823Z,10.09
2023-05-26T05:14:37.235Z,10.13
2023-05-26T05:19:41.850Z,10.23
2023-05-26T05:24:44.941Z,10.32
2023-05-26T05:29:48.564Z,10.41
2023-05-26T05:34:53.131Z,10.49
2023-05-26T05:39:56.739Z,10.65
2023-05-26T05:45:01.208Z,10.72
2023-05-26T05:50:09.317Z,10.81
2023-05-26T05:55:13.119Z,10.98
2023-05-26T06:00:17.083Z,11.19
2023-05-26T06:05:22.290Z,11.36
2023-05-26T06:10:25.548Z,11.62
2023-05-26T06:15:28.649Z,11.91
2023-05-26T06:20:33.185Z,12.41
2023-05-26T06:25:36.706Z,13.23
2023-05-26T06:30:40.306Z,14.12
2023-05-26T06:35:44.915Z,14.78
2023-05-26T06:40:48.094Z,15.07
2023-05-26T06:45:51.508Z,15.72
2023-05-26T06:50:56.035Z,16.44
2023-05-26T06:55:59.096Z,16.92
2023-05-26T07:01:03.497Z,17.29
2023-05-26T07:06:08.507Z,18.17
2023-05-26T07:11:11.903Z,17.99
2023-05-26T07:16:15.037Z,18.31
2023-05-26T07:21:20.307Z,18.82
2023-05-26T07:26:24.117Z,19.37
2023-05-26T07:31:27.333Z,19.86
2023-05-26T07:36:32.458Z,20.70
2023-05-26T07:41:36.792Z,20.55
2023-05-26T07:46:41.072Z,20.57
2023-05-26T07:51:45.589Z,20.93
2023-05-26T07:56:48.691Z,21.67
2023-05-26T08:01:51.758Z,21.87
2023-05-26T08:06:56.154Z,21.85
2023-05-26T08:11:59.615Z,22.29
2023-05-26T08:17:02.687Z,21.96
2023-05-26T08:22:07.127Z,22.24
2023-05-26T08:27:10.679Z,22.15
2023-05-26T08:32:13.747Z,22.95
2023-05-26T08:37:19.968Z,23.31
2023-05-26T08:42:33.188Z,23.51
2023-05-26T08:47:37.991Z,23.57
2023-05-26T08:58:06.816Z,24.32
2023-05-26T09:03:10.054Z,22.00
2023-05-26T09:08:14.869Z,23.57
2023-05-26T09:13:19.220Z,24.53
2023-05-26T09:18:22.802Z,24.66
2023-05-26T09:23:28.410Z,24.58
2023-05-26T09:28:31.452Z,23.99
2023-05-26T09:33:34.504Z,24.10
2023-05-26T09:38:38.951Z,24.57
2023-05-26T09:43:42.227Z,25.26
2023-05-26T09:48:51.399Z,25.00
2023-05-26T09:53:56.517Z,25.79
2023-05-26T09:59:00.543Z,26.34
2023-05-26T10:04:06.893Z,25.34
2023-05-26T10:09:12.714Z,25.70
2023-05-26T10:14:16.423Z,25.18
2023-05-26T10:19:20.040Z,25.03
2023-05-26T10:24:30.026Z,23.96
2023-05-26T10:29:39.360Z,24.21
2023-05-26T10:34:44.746Z,24.01
2023-05-26T10:39:50.014Z,24.21
2023-05-26T10:44:56.118Z,24.11
2023-05-26T10:50:00.923Z,25.36
2023-05-26T10:55:08.503Z,25.24
2023-05-26T11:00:22.818Z,25.07
2023-05-26T11:05:33.080Z,24.37
2023-05-26T11:11:03.582Z,25.33
2023-05-26T11:16:17.793Z,26.49
2023-05-26T11:21:25.234Z,25.39
2023-05-26T11:26:31.648Z,25.85
2023-05-26T11:31:35.343Z,25.94
2023-05-26T11:36:38.888Z,24.99
2023-05-26T11:41:44.390Z,25.92
2023-05-26T11:46:47.883Z,25.00
2023-05-26T11:51:52.572Z,25.27
2023-05-26T11:56:57.087Z,25.34
2023-05-26T12:02:01.943Z,25.39
2023-05-26T12:07:05.504Z,25.05
2023-05-26T12:12:13.587Z,25.55
2023-05-26T12:17:17.865Z,25.79
2023-05-26T12:22:28.894Z,25.83
2023-05-26T12:27:38.628Z,24.68
2023-05-26T12:32:42.270Z,25.08
2023-05-26T12:37:45.883Z,25.29
2023-05-26T12:42:51.065Z,25.31
2023-05-26T12:47:54.698Z,24.89
2023-05-26T12:52:57.867Z,25.12
2023-05-26T12:58:02.487Z,24.65
2023-05-26T13:03:05.916Z,25.10
2023-05-26T13:08:09.059Z,25.46
2023-05-26T13:13:14.322Z,25.42
2023-05-26T13:18:17.763Z,24.30
2023-05-26T13:23:21.385Z,24.14
2023-05-26T13:28:26.187Z,24.96
2023-05-26T13:33:29.259Z,23.77
2023-05-26T13:38:32.327Z,24.54
2023-05-26T13:43:38.203Z,25.15
2023-05-26T13:48:41.612Z,25.26
2023-05-26T13:53:44.671Z,24.65
2023-05-26T13:58:50.483Z,24.88
2023-05-26T14:03:55.401Z,23.95
2023-05-26T14:08:59.537Z,24.60
2023-05-26T14:14:04.249Z,24.54
2023-05-26T14:19:16.166Z,24.06
2023-05-26T14:24:20.639Z,23.71
2023-05-26T14:29:25.556Z,23.76
2023-05-26T14:34:28.610Z,23.28
2023-05-26T14:39:32.126Z,23.02
2023-05-26T14:44:36.584Z,22.86
2023-05-26T14:49:39.665Z,22.76
2023-05-26T14:54:42.702Z,22.59
2023-05-26T14:59:47.129Z,22.34
2023-05-26T15:04:50.731Z,22.01
2023-05-26T15:09:54.291Z,21.90
2023-05-26T15:14:58.658Z,21.90
2023-05-26T15:20:01.964Z,21.49
2023-05-26T15:25:06.047Z,21.58
2023-05-26T15:35:15.625Z,21.64
2023-05-26T15:40:19.277Z,21.87
2023-05-26T15:45:23.916Z,21.91
2023-05-26T15:50:27.525Z,21.43
2023-05-26T15:55:31.162Z,21.89
2023-05-26T16:00:35.979Z,22.19
2023-05-26T16:05:39.283Z,22.57
2023-05-26T16:10:42.801Z,22.97
2023-05-26T16:15:47.418Z,22.99
2023-05-26T16:20:51.308Z,23.35
2023-05-26T16:25:54.846Z,24.49
2023-05-26T16:30:59.805Z,23.85
2023-05-26T16:36:03.375Z,24.98
2023-05-26T16:41:08.972Z,24.17
2023-05-26T16:46:13.609Z,24.47
2023-05-26T16:51:18.990Z,24.07
2023-05-26T16:56:23.282Z,23.08
2023-05-26T17:01:28.047Z,22.48
2023-05-26T17:06:31.556Z,22.12
2023-05-26T17:11:34.612Z,21.37
2023-05-26T17:16:42.255Z,21.09
2023-05-26T17:21:45.474Z,20.53
2023-05-26T17:26:49.000Z,21.10
2023-05-26T17:31:53.923Z,20.69
2023-05-26T17:36:57.405Z,21.02
2023-05-26T17:42:00.654Z,20.38
2023-05-26T17:47:05.931Z,19.81
2023-05-26T17:52:09.199Z,19.14
2023-05-26T17:57:12.625Z,19.03
2023-05-26T18:02:17.427Z,18.56
2023-05-26T18:07:21.488Z,18.48
2023-05-26T18:12:25.273Z,18.28
2023-05-26T18:17:31.520Z,18.04
2023-05-26T18:22:36.594Z,17.87
2023-05-26T18:27:39.674Z,17.71
2023-05-26T18:32:44.657Z,17.50
2023-05-26T18:37:50.674Z,17.43
2023-05-26T18:42:54.036Z,17.29
2023-05-26T18:47:58.931Z,17.03
2023-05-26T18:53:03.630Z,16.85
2023-05-26T18:58:07.094Z,16.67
2023-05-26T19:03:12.476Z,16.53
2023-05-26T19:08:16.461Z,16.30
2023-05-26T19:13:19.589Z,16.06
2023-05-26T19:18:24.257Z,15.87
2023-05-26T19:23:31.161Z,15.56
2023-05-26T19:28:37.157Z,15.34
2023-05-26T19:33:43.671Z,15.27
2023-05-26T19:38:47.287Z,15.20
2023-05-26T19:43:50.885Z,15.07
2023-05-26T19:48:56.515Z,14.84
2023-05-26T19:54:00.128Z,14.76
2023-05-26T19:59:03.203Z,14.60
2023-05-26T20:04:08.201Z,14.49
2023-05-26T20:09:11.938Z,14.44
2023-05-26T20:14:15.269Z,14.36
2023-05-26T20:19:22.240Z,14.16
2023-05-26T20:24:26.030Z,14.11
2023-05-26T20:29:29.408Z,14.04
2023-05-26T20:34:34.014Z,14.00
2023-05-26T20:39:37.578Z,13.88
2023-05-26T20:44:40.657Z,13.86
2023-05-26T20:49:45.694Z,13.79
2023-05-26T20:54:48.758Z,13.73
2023-05-26T20:59:52.329Z,13.71
2023-05-26T21:04:56.728Z,13.58
2023-05-26T21:10:00.243Z,13.41
2023-05-26T21:15:03.723Z,13.34
2023-05-26T21:20:10.344Z,13.28
2023-05-26T21:25:13.921Z,13.14
2023-05-26T21:30:20.252Z,13.07
2023-05-26T21:35:24.703Z,12.99
2023-05-26T21:40:28.151Z,12.96
2023-05-26T21:45:32.560Z,12.88
2023-05-26T21:50:36.954Z,12.89
2023-05-26T21:55:40.800Z,12.75
2023-05-26T22:00:44.327Z,12.77
2023-05-26T22:05:48.722Z,12.70
2023-05-26T22:10:52.183Z,12.65
2023-05-26T22:15:55.341Z,12.59
2023-05-26T22:21:00.438Z,12.53
2023-05-26T22:26:03.922Z,12.30
2023-05-26T22:31:07.060Z,12.30
2023-05-26T22:36:11.907Z,12.22
2023-05-26T22:41:15.067Z,12.20
2023-05-26T22:46:18.180Z,12.21
2023-05-26T22:51:22.703Z,12.13
2023-05-26T22:56:26.567Z,12.19
2023-05-26T23:01:30.353Z,12.06
2023-05-26T23:06:34.869Z,12.02
2023-05-26T23:11:38.359Z,11.92
2023-05-26T23:16:41.810Z,11.92
2023-05-26T23:21:46.637Z,11.92
2023-05-26T23:26:53.468Z,11.84
2023-05-26T23:31:57.000Z,11.73
2023-05-26T23:37:01.801Z,11.72
2023-05-26T23:42:06.721Z,11.65
2023-05-26T23:47:10.412Z,11.54
2023-05-26T23:52:15.181Z,11.53
2023-05-26T23:57:18.750Z,11.49
